sensor_id;sensor_type;location;lat;lon;timestamp;pressure;altitude;pressure_sealevel;temperature;humidity
78016;BME280;67223;51.102;5.882;2024-01-30T00:00:28;102232.41;;;7.81;100.00
78016;BME280;67223;51.102;5.882;2024-01-30T00:02:53;102224.03;;;7.89;100.00
78016;BME280;67223;51.102;5.882;2024-01-30T00:05:19;102227.00;;;7.83;100.00
78016;BME280;67223;51.102;5.882;2024-01-30T00:07:44;102224.03;;;7.89;100.00
78016;BME280;67223;51.102;5.882;2024-01-30T00:10:10;102223.13;;;7.90;100.00
78016;BME280;67223;51.102;5.882;2024-01-30T00:12:35;102223.13;;;7.90;100.00
78016;BME280;67223;51.102;5.882;2024-01-30T00:15:00;102221.31;;;7.90;100.00
78016;BME280;67223;51.102;5.882;2024-01-30T00:17:26;102212.41;;;7.91;100.00
78016;BME280;67223;51.102;5.882;2024-01-30T00:19:51;102222.47;;;7.85;100.00
78016;BME280;67223;51.102;5.882;2024-01-30T00:22:17;102209.34;;;7.82;100.00
78016;BME280;67223;51.102;5.882;2024-01-30T00:24:42;102207.50;;;7.82;100.00
78016;BME280;67223;51.102;5.882;2024-01-30T00:27:08;102208.69;;;7.76;100.00
78016;BME280;67223;51.102;5.882;2024-01-30T00:29:33;102203.38;;;7.76;100.00
78016;BME280;67223;51.102;5.882;2024-01-30T00:31:59;102200.78;;;7.75;100.00
78016;BME280;67223;51.102;5.882;2024-01-30T00:34:25;102194.66;;;7.73;100.00
78016;BME280;67223;51.102;5.882;2024-01-30T00:36:50;102194.88;;;7.68;100.00
78016;BME280;67223;51.102;5.882;2024-01-30T00:39:16;102200.06;;;7.71;100.00
78016;BME280;67223;51.102;5.882;2024-01-30T00:41:41;102193.31;;;7.64;100.00
78016;BME280;67223;51.102;5.882;2024-01-30T00:44:06;102197.63;;;7.67;100.00
78016;BME280;67223;51.102;5.882;2024-01-30T00:46:32;102188.94;;;7.63;100.00
78016;BME280;67223;51.102;5.882;2024-01-30T00:48:57;102194.13;;;7.66;100.00
78016;BME280;67223;51.102;5.882;2024-01-30T00:51:23;102194.81;;;7.70;100.00
78016;BME280;67223;51.102;5.882;2024-01-30T00:53:48;102192.16;;;7.70;100.00
78016;BME280;67223;51.102;5.882;2024-01-30T00:56:13;102192.66;;;7.78;100.00
78016;BME280;67223;51.102;5.882;2024-01-30T00:58:39;102188.47;;;7.72;100.00
78016;BME280;67223;51.102;5.882;2024-01-30T01:01:05;102186.84;;;7.70;100.00
78016;BME280;67223;51.102;5.882;2024-01-30T01:03:32;102188.16;;;7.61;100.00
78016;BME280;67223;51.102;5.882;2024-01-30T01:05:57;102182.31;;;7.53;100.00
78016;BME280;67223;51.102;5.882;2024-01-30T01:08:23;102186.00;;;7.51;100.00
78016;BME280;67223;51.102;5.882;2024-01-30T01:10:48;102181.78;;;7.47;100.00
78016;BME280;67223;51.102;5.882;2024-01-30T01:13:14;102175.81;;;7.42;100.00
78016;BME280;67223;51.102;5.882;2024-01-30T01:15:39;102180.59;;;7.52;100.00
78016;BME280;67223;51.102;5.882;2024-01-30T01:18:05;102181.22;;;7.57;100.00
78016;BME280;67223;51.102;5.882;2024-01-30T01:20:30;102179.09;;;7.47;100.00
78016;BME280;67223;51.102;5.882;2024-01-30T01:22:55;102178.09;;;7.49;100.00
78016;BME280;67223;51.102;5.882;2024-01-30T01:25:21;102176.78;;;7.58;100.00
78016;BME280;67223;51.102;5.882;2024-01-30T01:27:46;102187.00;;;7.48;100.00
78016;BME280;67223;51.102;5.882;2024-01-30T01:30:17;102174.63;;;7.47;100.00
78016;BME280;67223;51.102;5.882;2024-01-30T01:32:48;102169.19;;;7.50;100.00
78016;BME280;67223;51.102;5.882;2024-01-30T01:35:22;102161.16;;;7.52;100.00
78016;BME280;67223;51.102;5.882;2024-01-30T01:37:50;102168.34;;;7.31;100.00
78016;BME280;67223;51.102;5.882;2024-01-30T01:40:23;102163.34;;;7.23;100.00
78016;BME280;67223;51.102;5.882;2024-01-30T01:42:50;102176.19;;;6.95;100.00
78016;BME280;67223;51.102;5.882;2024-01-30T01:45:16;102178.44;;;6.84;100.00
78016;BME280;67223;51.102;5.882;2024-01-30T01:47:42;102174.69;;;6.69;100.00
78016;BME280;67223;51.102;5.882;2024-01-30T01:50:08;102168.66;;;6.66;100.00
78016;BME280;67223;51.102;5.882;2024-01-30T01:52:35;102166.97;;;6.63;100.00
78016;BME280;67223;51.102;5.882;2024-01-30T01:55:01;102164.94;;;6.70;100.00
78016;BME280;67223;51.102;5.882;2024-01-30T01:57:26;102162.00;;;6.56;100.00
78016;BME280;67223;51.102;5.882;2024-01-30T01:59:52;102165.28;;;6.62;100.00
78016;BME280;67223;51.102;5.882;2024-01-30T02:02:19;102158.16;;;6.63;100.00
78016;BME280;67223;51.102;5.882;2024-01-30T02:04:45;102141.91;;;6.70;100.00
78016;BME280;67223;51.102;5.882;2024-01-30T02:07:10;102129.03;;;7.00;100.00
78016;BME280;67223;51.102;5.882;2024-01-30T02:09:36;102131.09;;;6.93;100.00
78016;BME280;67223;51.102;5.882;2024-01-30T02:12:01;102121.78;;;7.04;100.00
78016;BME280;67223;51.102;5.882;2024-01-30T02:14:27;102123.78;;;6.99;100.00
78016;BME280;67223;51.102;5.882;2024-01-30T02:16:52;102112.38;;;7.15;100.00
78016;BME280;67223;51.102;5.882;2024-01-30T02:19:18;102122.63;;;7.23;100.00
78016;BME280;67223;51.102;5.882;2024-01-30T02:21:44;102117.00;;;7.12;100.00
78016;BME280;67223;51.102;5.882;2024-01-30T02:24:10;102120.25;;;6.98;100.00
78016;BME280;67223;51.102;5.882;2024-01-30T02:26:35;102114.63;;;7.06;100.00
78016;BME280;67223;51.102;5.882;2024-01-30T02:29:00;102115.09;;;7.14;100.00
78016;BME280;67223;51.102;5.882;2024-01-30T02:31:26;102113.25;;;7.16;100.00
78016;BME280;67223;51.102;5.882;2024-01-30T02:33:51;102101.69;;;7.17;100.00
78016;BME280;67223;51.102;5.882;2024-01-30T02:36:17;102099.47;;;7.26;100.00
78016;BME280;67223;51.102;5.882;2024-01-30T02:38:42;102096.38;;;7.35;100.00
78016;BME280;67223;51.102;5.882;2024-01-30T02:41:07;102096.31;;;7.37;100.00
78016;BME280;67223;51.102;5.882;2024-01-30T02:43:33;102081.69;;;7.46;100.00
78016;BME280;67223;51.102;5.882;2024-01-30T02:45:58;102082.56;;;7.46;100.00
78016;BME280;67223;51.102;5.882;2024-01-30T02:48:25;102086.00;;;7.48;100.00
78016;BME280;67223;51.102;5.882;2024-01-30T02:50:51;102081.94;;;7.58;100.00
78016;BME280;67223;51.102;5.882;2024-01-30T02:53:16;102078.69;;;7.70;100.00
78016;BME280;67223;51.102;5.882;2024-01-30T02:55:42;102086.03;;;7.83;100.00
78016;BME280;67223;51.102;5.882;2024-01-30T02:58:07;102097.44;;;7.67;100.00
78016;BME280;67223;51.102;5.882;2024-01-30T03:03:11;102086.22;;;7.79;100.00
78016;BME280;67223;51.102;5.882;2024-01-30T03:05:37;102086.16;;;7.81;100.00
78016;BME280;67223;51.102;5.882;2024-01-30T03:08:04;102084.88;;;7.71;100.00
78016;BME280;67223;51.102;5.882;2024-01-30T03:10:29;102083.78;;;7.75;100.00
78016;BME280;67223;51.102;5.882;2024-01-30T03:12:55;102087.94;;;7.81;100.00
78016;BME280;67223;51.102;5.882;2024-01-30T03:15:20;102083.72;;;7.76;100.00
78016;BME280;67223;51.102;5.882;2024-01-30T03:17:45;102077.44;;;7.77;100.00
78016;BME280;67223;51.102;5.882;2024-01-30T03:20:11;102076.63;;;7.58;100.00
78016;BME280;67223;51.102;5.882;2024-01-30T03:22:36;102072.00;;;7.81;100.00
78016;BME280;67223;51.102;5.882;2024-01-30T03:25:02;102065.16;;;7.92;100.00
78016;BME280;67223;51.102;5.882;2024-01-30T03:27:27;102052.59;;;7.96;100.00
78016;BME280;67223;51.102;5.882;2024-01-30T03:29:54;102050.69;;;7.98;100.00
78016;BME280;67223;51.102;5.882;2024-01-30T03:32:19;102056.66;;;8.03;100.00
78016;BME280;67223;51.102;5.882;2024-01-30T03:34:44;102047.66;;;8.05;100.00
78016;BME280;67223;51.102;5.882;2024-01-30T03:37:10;102049.16;;;8.11;100.00
78016;BME280;67223;51.102;5.882;2024-01-30T03:39:35;102048.19;;;8.12;100.00
78016;BME280;67223;51.102;5.882;2024-01-30T03:42:01;102052.56;;;8.13;100.00
78016;BME280;67223;51.102;5.882;2024-01-30T03:44:27;102041.94;;;8.13;100.00
78016;BME280;67223;51.102;5.882;2024-01-30T03:46:52;102048.13;;;8.13;100.00
78016;BME280;67223;51.102;5.882;2024-01-30T03:49:18;102040.75;;;8.18;100.00
78016;BME280;67223;51.102;5.882;2024-01-30T03:51:43;102034.72;;;8.32;100.00
78016;BME280;67223;51.102;5.882;2024-01-30T03:54:09;102036.91;;;8.24;100.00
78016;BME280;67223;51.102;5.882;2024-01-30T03:56:35;102033.47;;;8.22;100.00
78016;BME280;67223;51.102;5.882;2024-01-30T03:59:00;102028.47;;;8.33;100.00
78016;BME280;67223;51.102;5.882;2024-01-30T04:01:27;102030.63;;;8.42;100.00
78016;BME280;67223;51.102;5.882;2024-01-30T04:03:53;102029.38;;;8.49;100.00
78016;BME280;67223;51.102;5.882;2024-01-30T04:06:19;102026.53;;;8.37;100.00
78016;BME280;67223;51.102;5.882;2024-01-30T04:08:44;102016.81;;;8.36;100.00
78016;BME280;67223;51.102;5.882;2024-01-30T04:11:10;102027.84;;;8.45;100.00
78016;BME280;67223;51.102;5.882;2024-01-30T04:13:35;102026.41;;;8.55;100.00
78016;BME280;67223;51.102;5.882;2024-01-30T04:16:01;102027.88;;;8.61;100.00
78016;BME280;67223;51.102;5.882;2024-01-30T04:18:28;102028.38;;;8.68;100.00
78016;BME280;67223;51.102;5.882;2024-01-30T04:20:53;102027.53;;;8.83;100.00
78016;BME280;67223;51.102;5.882;2024-01-30T04:23:19;102028.59;;;8.80;100.00
78016;BME280;67223;51.102;5.882;2024-01-30T04:25:44;102021.84;;;8.73;100.00
78016;BME280;67223;51.102;5.882;2024-01-30T04:28:10;102022.91;;;8.71;100.00
78016;BME280;67223;51.102;5.882;2024-01-30T04:30:37;102024.16;;;8.63;100.00
78016;BME280;67223;51.102;5.882;2024-01-30T04:33:03;102028.31;;;8.69;100.00
78016;BME280;67223;51.102;5.882;2024-01-30T04:35:29;102029.81;;;8.57;100.00
78016;BME280;67223;51.102;5.882;2024-01-30T04:37:54;102028.28;;;8.53;100.00
78016;BME280;67223;51.102;5.882;2024-01-30T04:40:20;102021.66;;;8.45;100.00
78016;BME280;67223;51.102;5.882;2024-01-30T04:42:46;102020.41;;;8.35;100.00
78016;BME280;67223;51.102;5.882;2024-01-30T04:45:12;102026.09;;;8.44;100.00
78016;BME280;67223;51.102;5.882;2024-01-30T04:47:37;102019.22;;;8.40;100.00
78016;BME280;67223;51.102;5.882;2024-01-30T04:50:04;102027.06;;;8.26;100.00
78016;BME280;67223;51.102;5.882;2024-01-30T04:52:30;102009.84;;;8.33;100.00
78016;BME280;67223;51.102;5.882;2024-01-30T04:54:55;102003.84;;;8.30;100.00
78016;BME280;67223;51.102;5.882;2024-01-30T04:57:21;101991.50;;;8.27;100.00
78016;BME280;67223;51.102;5.882;2024-01-30T04:59:46;101993.63;;;8.38;100.00
78016;BME280;67223;51.102;5.882;2024-01-30T05:02:11;101997.41;;;8.34;100.00
78016;BME280;67223;51.102;5.882;2024-01-30T05:04:37;101992.06;;;8.34;100.00
78016;BME280;67223;51.102;5.882;2024-01-30T05:07:02;101996.81;;;8.27;100.00
78016;BME280;67223;51.102;5.882;2024-01-30T05:09:28;101985.75;;;8.36;100.00
78016;BME280;67223;51.102;5.882;2024-01-30T05:11:53;101987.38;;;8.39;100.00
78016;BME280;67223;51.102;5.882;2024-01-30T05:14:19;101972.34;;;8.38;100.00
78016;BME280;67223;51.102;5.882;2024-01-30T05:16:44;101955.72;;;8.50;100.00
78016;BME280;67223;51.102;5.882;2024-01-30T05:19:15;101964.03;;;8.59;100.00
78016;BME280;67223;51.102;5.882;2024-01-30T05:21:41;101957.59;;;8.63;100.00
78016;BME280;67223;51.102;5.882;2024-01-30T05:24:07;101956.31;;;8.71;100.00
78016;BME280;67223;51.102;5.882;2024-01-30T05:26:35;101953.66;;;8.71;100.00
78016;BME280;67223;51.102;5.882;2024-01-30T05:29:00;101947.63;;;8.83;100.00
78016;BME280;67223;51.102;5.882;2024-01-30T05:31:25;101955.38;;;8.87;100.00
78016;BME280;67223;51.102;5.882;2024-01-30T05:33:52;101959.34;;;8.80;100.00
78016;BME280;67223;51.102;5.882;2024-01-30T05:36:17;101953.28;;;8.77;100.00
78016;BME280;67223;51.102;5.882;2024-01-30T05:38:43;101944.81;;;8.86;100.00
78016;BME280;67223;51.102;5.882;2024-01-30T05:41:09;101953.16;;;8.80;100.00
78016;BME280;67223;51.102;5.882;2024-01-30T05:43:34;101939.66;;;8.83;100.00
78016;BME280;67223;51.102;5.882;2024-01-30T05:46:00;101935.09;;;8.85;100.00
78016;BME280;67223;51.102;5.882;2024-01-30T05:48:25;101944.56;;;8.75;100.00
78016;BME280;67223;51.102;5.882;2024-01-30T05:50:51;101934.31;;;8.83;100.00
78016;BME280;67223;51.102;5.882;2024-01-30T05:53:16;101935.09;;;9.00;100.00
78016;BME280;67223;51.102;5.882;2024-01-30T05:55:42;101925.56;;;8.96;100.00
78016;BME280;67223;51.102;5.882;2024-01-30T05:58:07;101924.41;;;9.16;100.00
78016;BME280;67223;51.102;5.882;2024-01-30T06:00:32;101925.03;;;9.35;100.00
78016;BME280;67223;51.102;5.882;2024-01-30T06:02:58;101932.66;;;9.41;100.00
78016;BME280;67223;51.102;5.882;2024-01-30T06:05:23;101922.47;;;10.63;100.00
78016;BME280;67223;51.102;5.882;2024-01-30T06:07:49;101935.78;;;10.22;100.00
78016;BME280;67223;51.102;5.882;2024-01-30T06:10:14;101941.16;;;10.06;100.00
78016;BME280;67223;51.102;5.882;2024-01-30T06:12:40;101937.25;;;11.22;100.00
78016;BME280;67223;51.102;5.882;2024-01-30T06:15:05;101956.31;;;10.76;100.00
78016;BME280;67223;51.102;5.882;2024-01-30T06:17:31;101971.44;;;10.21;100.00
78016;BME280;67223;51.102;5.882;2024-01-30T06:19:57;101941.16;;;11.04;100.00
78016;BME280;67223;51.102;5.882;2024-01-30T06:22:23;101973.03;;;10.80;100.00
78016;BME280;67223;51.102;5.882;2024-01-30T06:24:48;101973.84;;;10.95;100.00
78016;BME280;67223;51.102;5.882;2024-01-30T06:27:14;101968.19;;;11.26;100.00
78016;BME280;67223;51.102;5.882;2024-01-30T06:29:41;101997.63;;;10.71;100.00
78016;BME280;67223;51.102;5.882;2024-01-30T06:32:07;101984.41;;;11.10;100.00
78016;BME280;67223;51.102;5.882;2024-01-30T06:34:33;102002.25;;;11.10;100.00
78016;BME280;67223;51.102;5.882;2024-01-30T06:36:58;102010.34;;;10.39;100.00
78016;BME280;67223;51.102;5.882;2024-01-30T06:39:24;101997.56;;;10.58;100.00
78016;BME280;67223;51.102;5.882;2024-01-30T06:41:50;102003.28;;;10.38;100.00
78016;BME280;67223;51.102;5.882;2024-01-30T06:44:15;102000.41;;;10.27;100.00
78016;BME280;67223;51.102;5.882;2024-01-30T06:46:41;102001.75;;;10.62;100.00
78016;BME280;67223;51.102;5.882;2024-01-30T06:49:06;102013.09;;;10.38;100.00
78016;BME280;67223;51.102;5.882;2024-01-30T06:51:32;102015.19;;;10.18;100.00
78016;BME280;67223;51.102;5.882;2024-01-30T06:53:57;102002.03;;;11.13;100.00
78016;BME280;67223;51.102;5.882;2024-01-30T06:56:22;102008.16;;;11.42;100.00
78016;BME280;67223;51.102;5.882;2024-01-30T06:58:49;102029.19;;;11.34;100.00
78016;BME280;67223;51.102;5.882;2024-01-30T07:01:14;102028.59;;;11.70;100.00
78016;BME280;67223;51.102;5.882;2024-01-30T07:03:40;102050.81;;;11.84;100.00
78016;BME280;67223;51.102;5.882;2024-01-30T07:06:05;102072.25;;;11.97;100.00
78016;BME280;67223;51.102;5.882;2024-01-30T07:08:31;102084.13;;;11.39;100.00
78016;BME280;67223;51.102;5.882;2024-01-30T07:10:56;102085.63;;;10.88;100.00
78016;BME280;67223;51.102;5.882;2024-01-30T07:13:22;102076.31;;;11.22;100.00
78016;BME280;67223;51.102;5.882;2024-01-30T07:15:47;102066.91;;;11.70;100.00
78016;BME280;67223;51.102;5.882;2024-01-30T07:18:12;102079.88;;;12.03;100.00
78016;BME280;67223;51.102;5.882;2024-01-30T07:20:39;102095.75;;;12.19;100.00
78016;BME280;67223;51.102;5.882;2024-01-30T07:23:15;102119.25;;;11.88;100.00
78016;BME280;67223;51.102;5.882;2024-01-30T07:25:45;102127.72;;;12.34;100.00
78016;BME280;67223;51.102;5.882;2024-01-30T07:28:13;102133.38;;;12.30;100.00
78016;BME280;67223;51.102;5.882;2024-01-30T07:30:41;102153.88;;;13.07;100.00
78016;BME280;67223;51.102;5.882;2024-01-30T07:33:07;102183.06;;;13.49;100.00
78016;BME280;67223;51.102;5.882;2024-01-30T07:35:33;102194.91;;;13.34;100.00
78016;BME280;67223;51.102;5.882;2024-01-30T07:37:59;102216.13;;;12.99;100.00
78016;BME280;67223;51.102;5.882;2024-01-30T07:40:24;102230.69;;;12.82;100.00
78016;BME280;67223;51.102;5.882;2024-01-30T07:42:49;102237.81;;;13.34;100.00
78016;BME280;67223;51.102;5.882;2024-01-30T07:45:15;102254.53;;;13.50;100.00
78016;BME280;67223;51.102;5.882;2024-01-30T07:47:41;102249.22;;;13.25;100.00
78016;BME280;67223;51.102;5.882;2024-01-30T07:50:07;102253.44;;;12.89;100.00
78016;BME280;67223;51.102;5.882;2024-01-30T07:52:33;102268.75;;;12.75;100.00
78016;BME280;67223;51.102;5.882;2024-01-30T07:54:58;102262.63;;;12.73;100.00
78016;BME280;67223;51.102;5.882;2024-01-30T07:57:24;102259.31;;;12.16;100.00
78016;BME280;67223;51.102;5.882;2024-01-30T07:59:50;102262.53;;;12.74;100.00
78016;BME280;67223;51.102;5.882;2024-01-30T08:02:15;102268.44;;;12.79;100.00
78016;BME280;67223;51.102;5.882;2024-01-30T08:04:40;102265.63;;;12.68;100.00
78016;BME280;67223;51.102;5.882;2024-01-30T08:07:06;102282.00;;;12.64;100.00
78016;BME280;67223;51.102;5.882;2024-01-30T08:09:31;102286.38;;;13.04;100.00
78016;BME280;67223;51.102;5.882;2024-01-30T08:11:57;102302.34;;;13.06;100.00
78016;BME280;67223;51.102;5.882;2024-01-30T08:14:22;102306.84;;;13.05;100.00
78016;BME280;67223;51.102;5.882;2024-01-30T08:16:48;102324.47;;;12.43;100.00
78016;BME280;67223;51.102;5.882;2024-01-30T08:19:14;102309.78;;;12.75;100.00
78016;BME280;67223;51.102;5.882;2024-01-30T08:21:40;102311.13;;;12.56;100.00
78016;BME280;67223;51.102;5.882;2024-01-30T08:24:06;102318.78;;;12.21;100.00
78016;BME280;67223;51.102;5.882;2024-01-30T08:26:32;102300.09;;;11.50;100.00
78016;BME280;67223;51.102;5.882;2024-01-30T08:28:58;102283.72;;;11.26;100.00
78016;BME280;67223;51.102;5.882;2024-01-30T08:31:26;102274.75;;;10.69;100.00
78016;BME280;67223;51.102;5.882;2024-01-30T08:33:51;102261.69;;;10.49;100.00
78016;BME280;67223;51.102;5.882;2024-01-30T08:36:17;102246.75;;;10.30;100.00
78016;BME280;67223;51.102;5.882;2024-01-30T08:38:42;102239.31;;;10.35;100.00
78016;BME280;67223;51.102;5.882;2024-01-30T08:41:08;102222.28;;;10.22;100.00
78016;BME280;67223;51.102;5.882;2024-01-30T08:43:33;102216.06;;;10.22;100.00
78016;BME280;67223;51.102;5.882;2024-01-30T08:45:59;102213.03;;;10.44;100.00
78016;BME280;67223;51.102;5.882;2024-01-30T08:48:25;102209.06;;;10.51;100.00
78016;BME280;67223;51.102;5.882;2024-01-30T08:50:51;102209.56;;;10.42;100.00
78016;BME280;67223;51.102;5.882;2024-01-30T08:53:16;102199.34;;;10.64;100.00
78016;BME280;67223;51.102;5.882;2024-01-30T08:55:41;102196.69;;;10.64;100.00
78016;BME280;67223;51.102;5.882;2024-01-30T08:58:07;102204.31;;;10.56;100.00
78016;BME280;67223;51.102;5.882;2024-01-30T09:00:33;102192.59;;;10.87;100.00
78016;BME280;67223;51.102;5.882;2024-01-30T09:02:58;102199.66;;;10.73;100.00
78016;BME280;67223;51.102;5.882;2024-01-30T09:05:24;102200.47;;;11.04;100.00
78016;BME280;67223;51.102;5.882;2024-01-30T09:07:49;102197.47;;;10.80;100.00
78016;BME280;67223;51.102;5.882;2024-01-30T09:10:14;102210.00;;;10.94;100.00
78016;BME280;67223;51.102;5.882;2024-01-30T09:12:40;102201.69;;;11.27;100.00
78016;BME280;67223;51.102;5.882;2024-01-30T09:15:05;102214.31;;;11.10;100.00
78016;BME280;67223;51.102;5.882;2024-01-30T09:17:31;102230.50;;;10.79;100.00
78016;BME280;67223;51.102;5.882;2024-01-30T09:19:56;102220.63;;;10.65;100.00
78016;BME280;67223;51.102;5.882;2024-01-30T09:22:21;102219.53;;;10.84;100.00
78016;BME280;67223;51.102;5.882;2024-01-30T09:24:47;102214.69;;;11.18;100.00
78016;BME280;67223;51.102;5.882;2024-01-30T09:27:12;102216.63;;;10.72;100.00
78016;BME280;67223;51.102;5.882;2024-01-30T09:29:37;102216.06;;;10.82;100.00
78016;BME280;67223;51.102;5.882;2024-01-30T09:32:04;102207.88;;;11.41;100.00
78016;BME280;67223;51.102;5.882;2024-01-30T09:34:31;102217.53;;;11.01;100.00
78016;BME280;67223;51.102;5.882;2024-01-30T09:36:56;102222.47;;;10.79;100.00
78016;BME280;67223;51.102;5.882;2024-01-30T09:39:22;102220.69;;;10.94;100.00
78016;BME280;67223;51.102;5.882;2024-01-30T09:41:49;102209.63;;;10.86;100.00
78016;BME280;67223;51.102;5.882;2024-01-30T09:44:20;102222.22;;;11.26;100.00
78016;BME280;67223;51.102;5.882;2024-01-30T09:46:47;102239.41;;;12.20;100.00
78016;BME280;67223;51.102;5.882;2024-01-30T09:49:15;102258.63;;;11.85;100.00
78016;BME280;67223;51.102;5.882;2024-01-30T09:51:41;102258.72;;;12.25;100.00
78016;BME280;67223;51.102;5.882;2024-01-30T09:54:08;102255.19;;;11.69;100.00
78016;BME280;67223;51.102;5.882;2024-01-30T09:56:33;102270.38;;;12.50;100.00
78016;BME280;67223;51.102;5.882;2024-01-30T09:58:59;102273.88;;;12.38;100.00
78016;BME280;67223;51.102;5.882;2024-01-30T10:01:25;102278.09;;;12.01;100.00
78016;BME280;67223;51.102;5.882;2024-01-30T10:03:51;102291.94;;;13.01;100.00
78016;BME280;67223;51.102;5.882;2024-01-30T10:06:19;102304.44;;;12.75;100.00
78016;BME280;67223;51.102;5.882;2024-01-30T10:08:46;102318.84;;;13.26;100.00
78016;BME280;67223;51.102;5.882;2024-01-30T10:11:11;102330.00;;;13.33;100.00
78016;BME280;67223;51.102;5.882;2024-01-30T10:13:39;102354.16;;;13.46;100.00
78016;BME280;67223;51.102;5.882;2024-01-30T10:16:04;102359.00;;;13.78;100.00
78016;BME280;67223;51.102;5.882;2024-01-30T10:18:31;102372.63;;;14.01;100.00
78016;BME280;67223;51.102;5.882;2024-01-30T10:20:57;102381.44;;;14.03;100.00
78016;BME280;67223;51.102;5.882;2024-01-30T10:23:22;102380.03;;;13.97;100.00
78016;BME280;67223;51.102;5.882;2024-01-30T10:25:48;102384.00;;;13.92;100.00
78016;BME280;67223;51.102;5.882;2024-01-30T10:28:13;102370.66;;;13.27;100.00
78016;BME280;67223;51.102;5.882;2024-01-30T10:30:38;102370.47;;;13.55;100.00
78016;BME280;67223;51.102;5.882;2024-01-30T10:33:04;102386.59;;;13.80;100.00
78016;BME280;67223;51.102;5.882;2024-01-30T10:35:29;102365.72;;;13.21;100.00
78016;BME280;67223;51.102;5.882;2024-01-30T10:37:56;102369.00;;;13.64;100.00
78016;BME280;67223;51.102;5.882;2024-01-30T10:40:26;102369.41;;;13.45;100.00
78016;BME280;67223;51.102;5.882;2024-01-30T10:42:52;102375.59;;;13.20;100.00
78016;BME280;67223;51.102;5.882;2024-01-30T10:45:22;102360.91;;;13.26;100.00
78016;BME280;67223;51.102;5.882;2024-01-30T10:47:49;102369.06;;;13.37;100.00
78016;BME280;67223;51.102;5.882;2024-01-30T10:50:15;102367.03;;;13.28;100.00
78016;BME280;67223;51.102;5.882;2024-01-30T10:52:42;102373.94;;;13.57;100.00
78016;BME280;67223;51.102;5.882;2024-01-30T10:55:07;102399.41;;;13.90;100.00
78016;BME280;67223;51.102;5.882;2024-01-30T10:57:36;102405.81;;;14.12;100.00
78016;BME280;67223;51.102;5.882;2024-01-30T11:00:05;102415.19;;;13.94;100.00
78016;BME280;67223;51.102;5.882;2024-01-30T11:02:37;102405.91;;;14.11;100.00
78016;BME280;67223;51.102;5.882;2024-01-30T11:05:04;102415.41;;;14.04;100.00
78016;BME280;67223;51.102;5.882;2024-01-30T11:07:30;102419.22;;;14.25;100.00
78016;BME280;67223;51.102;5.882;2024-01-30T11:12:24;102424.63;;;13.87;100.00
78016;BME280;67223;51.102;5.882;2024-01-30T11:15:13;102416.56;;;13.62;100.00
78016;BME280;67223;51.102;5.882;2024-01-30T11:20:09;102404.84;;;14.01;100.00
78016;BME280;67223;51.102;5.882;2024-01-30T11:22:35;102403.00;;;13.51;100.00
78016;BME280;67223;51.102;5.882;2024-01-30T11:25:01;102406.81;;;13.73;100.00
78016;BME280;67223;51.102;5.882;2024-01-30T11:27:30;102411.84;;;13.78;100.00
78016;BME280;67223;51.102;5.882;2024-01-30T11:30:01;102424.41;;;14.03;100.00
78016;BME280;67223;51.102;5.882;2024-01-30T11:32:27;102391.31;;;13.39;100.00
78016;BME280;67223;51.102;5.882;2024-01-30T11:34:53;102396.88;;;13.36;100.00
78016;BME280;67223;51.102;5.882;2024-01-30T11:37:21;102413.22;;;13.96;100.00
78016;BME280;67223;51.102;5.882;2024-01-30T11:39:48;102406.56;;;14.02;100.00
78016;BME280;67223;51.102;5.882;2024-01-30T11:42:13;102410.44;;;13.72;100.00
78016;BME280;67223;51.102;5.882;2024-01-30T11:44:39;102407.00;;;13.70;100.00
78016;BME280;67223;51.102;5.882;2024-01-30T11:47:05;102414.31;;;13.81;100.00
78016;BME280;67223;51.102;5.882;2024-01-30T11:49:30;102423.44;;;14.29;100.00
78016;BME280;67223;51.102;5.882;2024-01-30T11:51:56;102428.47;;;14.46;100.00
78016;BME280;67223;51.102;5.882;2024-01-30T11:54:22;102412.19;;;13.99;100.00
78016;BME280;67223;51.102;5.882;2024-01-30T11:56:47;102400.47;;;13.74;100.00
78016;BME280;67223;51.102;5.882;2024-01-30T11:59:13;102404.53;;;13.93;100.00
78016;BME280;67223;51.102;5.882;2024-01-30T12:01:39;102409.69;;;14.08;100.00
78016;BME280;67223;51.102;5.882;2024-01-30T12:04:05;102400.34;;;13.89;100.00
78016;BME280;67223;51.102;5.882;2024-01-30T12:06:34;102397.97;;;13.71;100.00
78016;BME280;67223;51.102;5.882;2024-01-30T12:09:01;102415.75;;;14.36;100.00
78016;BME280;67223;51.102;5.882;2024-01-30T12:11:29;102413.47;;;13.93;100.00
78016;BME280;67223;51.102;5.882;2024-01-30T12:13:55;102421.56;;;14.30;100.00
78016;BME280;67223;51.102;5.882;2024-01-30T12:16:21;102416.44;;;14.27;100.00
78016;BME280;67223;51.102;5.882;2024-01-30T12:18:46;102429.09;;;14.50;100.00
78016;BME280;67223;51.102;5.882;2024-01-30T12:21:12;102427.81;;;14.30;100.00
78016;BME280;67223;51.102;5.882;2024-01-30T12:23:37;102421.16;;;14.23;100.00
78016;BME280;67223;51.102;5.882;2024-01-30T12:26:04;102432.97;;;14.58;100.00
78016;BME280;67223;51.102;5.882;2024-01-30T12:28:32;102443.03;;;14.68;100.00
78016;BME280;67223;51.102;5.882;2024-01-30T12:31:04;102456.03;;;14.74;100.00
78016;BME280;67223;51.102;5.882;2024-01-30T12:33:30;102451.38;;;14.76;100.00
78016;BME280;67223;51.102;5.882;2024-01-30T12:35:57;102453.47;;;14.59;100.00
78016;BME280;67223;51.102;5.882;2024-01-30T12:38:24;102452.41;;;14.62;100.00
78016;BME280;67223;51.102;5.882;2024-01-30T12:40:54;102459.28;;;14.66;100.00
78016;BME280;67223;51.102;5.882;2024-01-30T12:43:19;102457.09;;;14.71;100.00
78016;BME280;67223;51.102;5.882;2024-01-30T12:45:45;102443.53;;;14.49;100.00